Time;durP1;ratioP1;P1;durP2;ratioP2;P2;SDS_P1;SDS_P2;PMS_P1;PMS_P2;Temp;Humidity;BMP_temperature;BMP_pressure;BME280_temperature;BME280_humidity;BME280_pressure;Samples;Min_cycle;Max_cycle;Signal;HPM_P1;HPM_P2
2024/01/25 00:00:52;;;;;;;8.73;2.90;;;;;;;8.95;100.00;153657.59;5036763;28;20464;-79
2024/01/25 00:03:18;;;;;;;10.67;3.17;;;;;;;8.96;100.00;153660.19;5026276;28;20873;-79
2024/01/25 00:05:45;;;;;;;6.50;2.20;;;;;;;8.97;100.00;153662.81;5027750;28;21132;-79
2024/01/25 00:08:13;;;;;;;6.40;2.80;;;;;;;8.93;100.00;153653.72;5022705;28;20474;-79
2024/01/25 00:10:39;;;;;;;6.37;2.40;;;;;;;8.94;100.00;153655.03;5025810;28;20822;-79
2024/01/25 00:13:06;;;;;;;9.13;2.90;;;;;;;8.93;100.00;153652.44;5028345;28;20541;-79
2024/01/25 00:15:32;;;;;;;6.70;2.00;;;;;;;8.94;100.00;153655.03;5030111;28;20436;-79
2024/01/25 00:17:59;;;;;;;6.83;2.60;;;;;;;8.94;100.00;153655.03;5021890;28;20998;-79
2024/01/25 00:20:25;;;;;;;9.10;2.57;;;;;;;8.97;100.00;153662.81;5026176;28;20915;-79
2024/01/25 00:22:52;;;;;;;14.07;3.50;;;;;;;8.99;100.00;153669.25;5024794;28;20460;-79
2024/01/25 00:25:20;;;;;;;6.50;2.23;;;;;;;8.97;100.00;153664.09;5024815;28;20519;-79
2024/01/25 00:27:47;;;;;;;8.70;2.70;;;;;;;8.96;100.00;153660.19;5025240;28;20505;-79
2024/01/25 00:30:14;;;;;;;9.77;3.17;;;;;;;8.95;100.00;153657.59;5027487;28;20647;-79
2024/01/25 00:32:40;;;;;;;6.00;2.57;;;;;;;8.95;100.00;153658.91;5024889;28;20519;-79
2024/01/25 00:35:09;;;;;;;8.23;2.47;;;;;;;8.97;100.00;153664.09;5026035;28;20514;-79
2024/01/25 00:37:36;;;;;;;7.70;3.20;;;;;;;8.97;100.00;153664.09;5043891;28;20570;-79
2024/01/25 00:40:04;;;;;;;7.73;3.40;;;;;;;8.99;100.00;153669.25;5029980;28;20440;-79
2024/01/25 00:42:32;;;;;;;17.43;3.23;;;;;;;9.01;100.00;153674.44;5028923;28;20954;-79
2024/01/25 00:44:59;;;;;;;11.73;2.93;;;;;;;9.01;100.00;153674.44;5009854;28;20889;-79
2024/01/25 00:47:26;;;;;;;10.70;3.03;;;;;;;9.05;100.00;153683.50;5044522;28;20460;-79
2024/01/25 00:49:53;;;;;;;9.13;2.87;;;;;;;9.05;100.00;153683.50;5029569;28;21065;-79
2024/01/25 00:52:20;;;;;;;13.23;2.90;;;;;;;9.07;100.00;153688.66;5013744;28;20460;-79
2024/01/25 00:54:47;;;;;;;8.67;2.57;;;;;;;9.06;100.00;153686.06;5026788;28;20518;-79
2024/01/25 00:57:14;;;;;;;10.87;3.10;;;;;;;9.09;100.00;153693.81;5038652;28;20451;-78
2024/01/25 00:59:42;;;;;;;8.77;2.60;;;;;;;9.10;100.00;153697.72;5030180;28;20440;-78
2024/01/25 01:02:12;;;;;;;8.00;2.50;;;;;;;9.11;100.00;153698.97;5025515;28;20465;-79
2024/01/25 01:04:39;;;;;;;6.70;2.60;;;;;;;9.12;100.00;153701.59;5032250;28;20447;-79
2024/01/25 01:07:06;;;;;;;6.57;2.40;;;;;;;9.16;100.00;153711.91;5032498;28;20474;-79
2024/01/25 01:09:33;;;;;;;8.10;2.63;;;;;;;9.16;100.00;153711.91;5033708;28;20467;-79
2024/01/25 01:11:59;;;;;;;7.97;3.17;;;;;;;9.17;100.00;153714.50;5028929;28;20451;-79
2024/01/25 01:14:26;;;;;;;10.50;3.00;;;;;;;9.19;100.00;153719.69;5051430;28;20884;-78
2024/01/25 01:16:55;;;;;;;7.00;2.87;;;;;;;9.22;100.00;153727.44;5040066;28;20471;-78
2024/01/25 01:19:21;;;;;;;10.67;2.27;;;;;;;9.17;100.00;153714.50;5027694;28;20436;-78
2024/01/25 01:21:48;;;;;;;7.70;3.30;;;;;;;9.16;100.00;153713.22;5026184;28;20533;-78
2024/01/25 01:24:14;;;;;;;11.13;3.50;;;;;;;9.15;100.00;153710.66;5044494;28;20543;-79
2024/01/25 01:26:42;;;;;;;3.90;2.10;;;;;;;9.14;100.00;153706.75;5027163;28;20928;-79
2024/01/25 01:29:08;;;;;;;7.07;2.67;;;;;;;9.15;100.00;153709.34;5028960;28;20455;-78
2024/01/25 01:31:35;;;;;;;6.03;2.80;;;;;;;9.15;100.00;153709.34;5026034;28;20470;-79
2024/01/25 01:34:03;;;;;;;8.40;3.13;;;;;;;9.15;100.00;153709.34;5028128;28;20656;-79
2024/01/25 01:36:29;;;;;;;7.77;2.10;;;;;;;9.15;100.00;153710.66;5028182;28;20937;-80
2024/01/25 01:38:56;;;;;;;13.50;3.20;;;;;;;9.13;100.00;153704.19;5026092;28;20459;-80
2024/01/25 01:41:22;;;;;;;7.83;2.57;;;;;;;9.12;100.00;153701.59;5038681;28;21000;-80
2024/01/25 01:43:53;;;;;;;11.23;2.40;;;;;;;9.13;100.00;153705.44;5045069;28;20420;-80
2024/01/25 01:46:26;;;;;;;8.60;3.43;;;;;;;9.15;100.00;153709.34;5036881;28;20515;-80
2024/01/25 01:48:52;;;;;;;12.17;3.50;;;;;;;9.16;100.00;153711.91;5028792;28;20440;-80
2024/01/25 01:51:20;;;;;;;8.87;2.50;;;;;;;9.13;100.00;153705.44;5008176;28;20550;-79
2024/01/25 01:53:47;;;;;;;9.83;2.80;;;;;;;9.16;100.00;153711.91;5030378;28;20661;-80
2024/01/25 01:56:14;;;;;;;6.60;2.90;;;;;;;9.18;100.00;153718.41;5028211;28;20521;-80
2024/01/25 01:58:41;;;;;;;8.97;2.73;;;;;;;9.18;100.00;153717.13;5027063;28;20451;-80
2024/01/25 02:01:07;;;;;;;14.60;2.40;;;;;;;9.16;100.00;153711.91;5028647;28;20467;-80
2024/01/25 02:03:34;;;;;;;4.53;2.27;;;;;;;9.16;100.00;153713.22;5006243;28;20506;-80
2024/01/25 02:06:02;;;;;;;6.97;2.43;;;;;;;9.14;100.00;153708.03;5026869;28;20490;-80
2024/01/25 02:08:30;;;;;;;5.63;2.30;;;;;;;9.16;100.00;153713.22;5030015;28;20488;-80
2024/01/25 02:10:56;;;;;;;5.57;2.13;;;;;;;9.15;100.00;153710.66;5041760;28;21031;-80
2024/01/25 02:13:23;;;;;;;5.97;2.33;;;;;;;9.18;100.00;153717.13;5026457;28;21007;-80
2024/01/25 02:15:49;;;;;;;9.83;3.57;;;;;;;9.18;100.00;153718.41;5038836;28;20460;-80
2024/01/25 02:18:16;;;;;;;4.63;2.17;;;;;;;9.15;100.00;153709.34;5024095;28;20502;-80
2024/01/25 02:20:42;;;;;;;7.03;2.23;;;;;;;9.15;100.00;153709.34;5026461;28;20463;-79
2024/01/25 02:23:10;;;;;;;7.50;2.90;;;;;;;9.13;100.00;153704.19;5028638;28;20459;-79
2024/01/25 02:25:37;;;;;;;12.97;2.87;;;;;;;9.12;100.00;153702.88;5029786;28;20517;-79
2024/01/25 02:28:04;;;;;;;9.10;2.07;;;;;;;9.12;100.00;153702.88;5024779;28;20456;-80
2024/01/25 02:30:30;;;;;;;6.40;2.70;;;;;;;9.09;100.00;153695.13;5015883;28;20436;-80
2024/01/25 02:32:57;;;;;;;5.60;2.27;;;;;;;9.07;100.00;153688.66;5043668;28;20443;-79
2024/01/25 02:35:23;;;;;;;5.83;2.20;;;;;;;9.06;100.00;153687.34;5043255;28;20448;-79
2024/01/25 02:37:50;;;;;;;10.23;2.70;;;;;;;9.03;100.00;153679.59;5022740;28;20467;-79
2024/01/25 02:40:18;;;;;;;13.67;2.67;;;;;;;9.05;100.00;153684.75;5027692;28;20986;-79
2024/01/25 02:42:45;;;;;;;4.90;2.00;;;;;;;9.06;100.00;153686.06;5035047;28;20471;-79
2024/01/25 02:45:12;;;;;;;5.93;2.70;;;;;;;9.07;100.00;153688.66;5038634;28;20449;-80
2024/01/25 02:47:38;;;;;;;6.23;2.23;;;;;;;9.07;100.00;153689.97;5026497;28;20460;-79
2024/01/25 02:50:06;;;;;;;7.93;2.43;;;;;;;9.12;100.00;153701.59;5027576;28;20447;-80
2024/01/25 02:52:32;;;;;;;9.10;1.83;;;;;;;9.10;100.00;153696.41;5035448;28;20934;-79
2024/01/25 02:54:59;;;;;;;6.13;2.40;;;;;;;9.13;100.00;153705.44;5022561;28;20990;-79
2024/01/25 02:57:27;;;;;;;7.33;2.30;;;;;;;9.12;100.00;153701.59;5028031;28;20444;-79
2024/01/25 02:59:53;;;;;;;4.47;2.00;;;;;;;9.05;100.00;153683.50;5027241;28;20818;-79
2024/01/25 03:02:20;;;;;;;9.67;2.37;;;;;;;9.03;100.00;153678.28;5039197;28;20518;-79
2024/01/25 03:04:47;;;;;;;7.10;2.40;;;;;;;9.01;100.00;153673.13;5025042;28;20834;-79
2024/01/25 03:07:13;;;;;;;8.93;2.13;;;;;;;9.00;100.00;153670.56;5028645;28;20966;-79
2024/01/25 03:09:40;;;;;;;6.23;3.00;;;;;;;8.97;100.00;153662.81;5029131;28;20475;-79
2024/01/25 03:12:07;;;;;;;11.57;2.50;;;;;;;8.98;100.00;153666.66;5025001;28;20452;-79
2024/01/25 03:14:34;;;;;;;5.83;2.60;;;;;;;8.98;100.00;153666.66;5043480;28;20479;-79
2024/01/25 03:17:01;;;;;;;9.50;2.30;;;;;;;8.96;100.00;153660.19;5027695;28;20456;-79
2024/01/25 03:19:28;;;;;;;10.67;3.27;;;;;;;8.97;100.00;153662.81;5026127;28;20541;-79
2024/01/25 03:21:55;;;;;;;6.87;2.17;;;;;;;9.02;100.00;153675.72;5031387;28;20444;-79
2024/01/25 03:24:21;;;;;;;11.70;2.83;;;;;;;9.03;100.00;153678.28;5029797;28;20464;-79
2024/01/25 03:26:48;;;;;;;6.40;2.40;;;;;;;9.02;100.00;153675.72;5007281;28;20491;-79
2024/01/25 03:29:15;;;;;;;6.10;2.50;;;;;;;9.01;100.00;153673.13;5023452;28;20564;-79
2024/01/25 03:31:42;;;;;;;7.70;2.43;;;;;;;8.99;100.00;153667.97;5024285;28;20915;-79
2024/01/25 03:34:09;;;;;;;7.83;2.30;;;;;;;8.97;100.00;153662.81;5033781;28;20475;-79
2024/01/25 03:36:36;;;;;;;8.07;2.33;;;;;;;8.98;100.00;153666.66;5026330;28;20857;-79
2024/01/25 03:39:03;;;;;;;12.10;3.00;;;;;;;8.99;100.00;153667.97;5027314;28;20447;-79
2024/01/25 03:41:30;;;;;;;7.83;2.30;;;;;;;8.97;100.00;153664.09;5038866;28;20580;-79
2024/01/25 03:43:56;;;;;;;5.50;2.70;;;;;;;8.96;100.00;153660.19;5028849;28;20452;-79
2024/01/25 03:46:22;;;;;;;7.37;2.73;;;;;;;8.98;100.00;153665.34;5026342;28;21031;-79
2024/01/25 03:48:50;;;;;;;10.87;3.50;;;;;;;8.93;100.00;153653.72;5027652;28;20444;-79
2024/01/25 03:51:17;;;;;;;15.47;3.90;;;;;;;8.92;100.00;153649.88;5023560;28;20455;-80
2024/01/25 03:53:46;;;;;;;8.83;3.10;;;;;;;8.92;100.00;153649.88;5027309;28;21053;-80
2024/01/25 03:56:13;;;;;;;9.27;2.60;;;;;;;8.92;100.00;153651.13;5024486;28;20472;-79
2024/01/25 03:58:40;;;;;;;9.13;2.73;;;;;;;8.94;100.00;153655.03;5026427;28;20459;-79
2024/01/25 04:01:06;;;;;;;6.87;2.20;;;;;;;8.93;100.00;153652.44;5035005;28;20549;-79
2024/01/25 04:03:33;;;;;;;4.43;2.17;;;;;;;8.97;100.00;153662.81;5040276;28;20986;-79
2024/01/25 04:06:01;;;;;;;8.83;2.70;;;;;;;8.97;100.00;153662.81;5042524;28;20439;-79
2024/01/25 04:08:28;;;;;;;7.03;2.17;;;;;;;8.96;100.00;153661.50;5037664;28;20460;-79
2024/01/25 04:10:54;;;;;;;6.70;2.43;;;;;;;8.95;100.00;153657.59;5023814;28;20569;-79
2024/01/25 04:13:21;;;;;;;8.03;2.30;;;;;;;8.94;100.00;153655.03;5026558;28;20501;-79
2024/01/25 04:15:47;;;;;;;12.23;3.00;;;;;;;8.91;100.00;153647.28;5027878;28;22657;-79
2024/01/25 04:18:14;;;;;;;5.57;2.37;;;;;;;8.91;100.00;153647.28;5021578;28;21073;-79
2024/01/25 04:20:42;;;;;;;7.50;2.23;;;;;;;8.90;100.00;153644.66;5017568;28;20967;-79
2024/01/25 04:23:10;;;;;;;6.87;2.70;;;;;;;8.86;100.00;153635.66;5042372;28;20440;-79
2024/01/25 04:25:36;;;;;;;4.60;2.63;;;;;;;8.85;100.00;153633.03;5025392;28;20861;-79
2024/01/25 04:28:03;;;;;;;7.63;3.13;;;;;;;8.82;100.00;153625.28;5038463;28;20517;-80
2024/01/25 04:30:30;;;;;;;7.27;2.83;;;;;;;8.82;100.00;153623.97;5026481;28;20793;-79
2024/01/25 04:32:57;;;;;;;6.60;3.00;;;;;;;8.80;100.00;153618.81;5025401;28;20518;-79
2024/01/25 04:35:23;;;;;;;12.13;3.00;;;;;;;8.80;100.00;153618.81;5021861;28;20490;-79
2024/01/25 04:37:50;;;;;;;5.73;2.80;;;;;;;8.79;100.00;153617.50;5024194;28;20560;-79
2024/01/25 04:40:19;;;;;;;7.47;2.80;;;;;;;8.78;100.00;153613.66;5026884;28;20494;-79
2024/01/25 04:42:45;;;;;;;5.73;2.23;;;;;;;8.78;100.00;153613.66;5025357;28;20470;-79
2024/01/25 04:45:12;;;;;;;5.33;2.27;;;;;;;8.77;100.00;153611.06;5019500;28;20447;-79
2024/01/25 04:47:38;;;;;;;7.33;3.30;;;;;;;8.78;100.00;153614.97;5026013;28;20545;-79
2024/01/25 04:50:06;;;;;;;7.00;2.17;;;;;;;8.77;100.00;153612.34;5023614;28;20529;-79
2024/01/25 04:52:32;;;;;;;7.07;2.67;;;;;;;8.77;100.00;153612.34;5019065;28;20566;-79
2024/01/25 04:54:59;;;;;;;7.50;3.00;;;;;;;8.76;100.00;153608.50;5023989;28;20549;-79
2024/01/25 04:57:26;;;;;;;6.13;2.33;;;;;;;8.73;100.00;153600.72;5036267;28;20456;-79
2024/01/25 04:59:53;;;;;;;7.47;2.53;;;;;;;8.73;100.00;153600.72;5029929;28;20509;-78
2024/01/25 05:02:19;;;;;;;14.00;2.87;;;;;;;8.72;100.00;153598.13;5025319;28;20467;-79
2024/01/25 05:04:46;;;;;;;8.00;2.93;;;;;;;8.71;100.00;153595.56;5018868;28;20455;-79
2024/01/25 05:07:12;;;;;;;4.60;2.00;;;;;;;8.67;100.00;153585.22;5020136;28;20978;-79
2024/01/25 05:09:39;;;;;;;5.60;2.53;;;;;;;8.68;100.00;153587.81;5037497;28;20479;-79
2024/01/25 05:12:06;;;;;;;7.80;3.07;;;;;;;8.66;100.00;153582.66;5029080;28;20838;-79
2024/01/25 05:14:34;;;;;;;10.00;2.77;;;;;;;8.64;100.00;153577.44;5025473;28;20544;-79
2024/01/25 05:17:01;;;;;;;7.63;2.37;;;;;;;8.62;100.00;153572.28;5028216;28;20428;-79
2024/01/25 05:19:27;;;;;;;7.03;2.33;;;;;;;8.57;100.00;153561.97;5028291;28;20833;-79
2024/01/25 05:21:54;;;;;;;7.53;3.00;;;;;;;8.56;100.00;153559.38;5027486;28;20459;-80
2024/01/25 05:24:20;;;;;;;5.43;2.83;;;;;;;8.50;100.00;153543.84;5029253;28;20467;-79
2024/01/25 05:26:47;;;;;;;11.90;3.67;;;;;;;8.50;100.00;153542.53;5031284;28;20875;-80
2024/01/25 05:29:13;;;;;;;5.80;2.30;;;;;;;8.43;100.00;153525.75;5031702;28;20447;-79
2024/01/25 05:31:41;;;;;;;7.47;2.37;;;;;;;8.41;100.00;153520.59;5006862;28;20467;-79
2024/01/25 05:34:08;;;;;;;9.13;2.40;;;;;;;8.33;100.00;153499.91;5027481;28;20475;-79
2024/01/25 05:36:34;;;;;;;8.03;3.47;;;;;;;8.30;100.00;153492.16;5024799;28;20525;-79
2024/01/25 05:39:06;;;;;;;5.97;2.60;;;;;;;8.27;100.00;153484.41;5026015;28;20451;-79
2024/01/25 05:41:33;;;;;;;7.90;2.80;;;;;;;8.26;100.00;153480.50;5026528;28;20991;-79
2024/01/25 05:43:59;;;;;;;6.07;2.77;;;;;;;8.19;100.00;153462.38;5030478;28;20509;-79
2024/01/25 05:46:26;;;;;;;7.00;2.67;;;;;;;8.15;100.00;153453.34;5028347;28;20523;-79
2024/01/25 05:48:54;;;;;;;6.97;2.27;;;;;;;8.11;100.00;153443.00;5029528;28;20447;-80
2024/01/25 05:51:20;;;;;;;5.33;2.43;;;;;;;8.11;100.00;153443.00;5026074;28;20541;-79
2024/01/25 05:53:47;;;;;;;11.60;2.70;;;;;;;8.10;100.00;153439.13;5031987;28;20448;-80
2024/01/25 05:56:13;;;;;;;7.53;2.80;;;;;;;8.09;100.00;153436.53;5030735;28;20474;-79
2024/01/25 05:58:40;;;;;;;5.07;2.90;;;;;;;8.04;100.00;153424.91;5030851;28;20533;-79
2024/01/25 06:01:07;;;;;;;8.23;2.90;;;;;;;8.01;100.00;153417.16;5023316;28;20517;-79
2024/01/25 06:03:33;;;;;;;7.37;2.70;;;;;;;7.98;100.00;153410.69;5033086;28;20865;-79
2024/01/25 06:06:01;;;;;;;6.30;2.43;;;;;;;7.96;100.00;153404.22;5033551;28;20501;-79
2024/01/25 06:08:28;;;;;;;12.70;3.07;;;;;;;7.94;100.00;153399.09;5035388;28;20455;-79
2024/01/25 06:10:54;;;;;;;6.30;2.63;;;;;;;7.91;100.00;153391.31;5037626;28;20490;-79
2024/01/25 06:13:46;;;;;;;15.50;3.63;;;;;;;7.91;100.00;153391.31;5031935;28;20467;-78
2024/01/25 06:16:13;;;;;;;6.97;2.80;;;;;;;7.87;100.00;153380.97;5036487;28;20486;-79
2024/01/25 06:18:39;;;;;;;13.63;2.70;;;;;;;7.83;100.00;153370.66;5034875;28;20549;-79
2024/01/25 06:21:07;;;;;;;7.53;3.50;;;;;;;7.79;100.00;153361.59;5037100;28;20451;-79
2024/01/25 06:23:34;;;;;;;4.20;2.37;;;;;;;7.80;100.00;153364.19;5038228;28;20455;-79
2024/01/25 06:26:00;;;;;;;7.97;3.00;;;;;;;7.76;100.00;153352.53;5034714;28;20845;-79
2024/01/25 06:28:27;;;;;;;9.83;3.27;;;;;;;7.74;100.00;153347.38;5034850;28;20447;-79
2024/01/25 06:30:54;;;;;;;11.80;3.07;;;;;;;7.70;100.00;153337.06;5037346;28;20459;-77
2024/01/25 06:33:20;;;;;;;9.03;2.90;;;;;;;7.67;100.00;153330.59;5035865;28;20923;-78
2024/01/25 06:35:47;;;;;;;9.40;3.90;;;;;;;7.65;100.00;153324.16;5032691;28;20483;-79
2024/01/25 06:38:14;;;;;;;8.33;2.97;;;;;;;7.68;100.00;153331.84;5032221;28;20451;-79
2024/01/25 06:40:41;;;;;;;6.20;3.13;;;;;;;7.66;100.00;153328.00;5035074;28;20452;-79
2024/01/25 06:43:07;;;;;;;7.97;3.10;;;;;;;7.61;100.00;153313.78;5033428;28;20458;-79
2024/01/25 06:45:34;;;;;;;13.33;3.10;;;;;;;7.58;100.00;153306.03;5032741;28;21034;-79
2024/01/25 06:48:00;;;;;;;13.37;3.40;;;;;;;7.55;100.00;153298.28;5032442;28;20469;-78
2024/01/25 06:50:27;;;;;;;8.27;3.20;;;;;;;7.50;100.00;153286.66;5034824;28;20802;-79
2024/01/25 06:53:06;;;;;;;10.80;3.83;;;;;;;7.47;100.00;153277.63;5033825;28;20501;-78
2024/01/25 06:55:33;;;;;;;13.73;3.57;;;;;;;7.45;100.00;153273.75;5031256;28;20491;-79
2024/01/25 06:58:00;;;;;;;15.37;3.33;;;;;;;7.42;100.00;153266.00;5034627;28;20530;-78
2024/01/25 07:00:27;;;;;;;9.20;3.13;;;;;;;7.40;100.00;153259.53;5022101;28;20571;-79
2024/01/25 07:02:53;;;;;;;9.23;4.10;;;;;;;7.31;100.00;153238.88;5032336;28;20977;-78
2024/01/25 07:05:20;;;;;;;8.50;5.53;;;;;;;7.26;100.00;153224.66;5037222;28;20497;-79
2024/01/25 07:07:47;;;;;;;13.90;7.70;;;;;;;7.27;100.00;153228.56;5030509;28;20468;-79
2024/01/25 07:10:14;;;;;;;18.63;10.27;;;;;;;7.25;100.00;153223.38;5028322;28;20498;-76
2024/01/25 07:12:41;;;;;;;15.00;7.33;;;;;;;7.23;100.00;153216.91;5031313;28;20541;-77
2024/01/25 07:15:08;;;;;;;13.47;5.87;;;;;;;7.23;100.00;153216.91;5030084;28;20476;-80
2024/01/25 07:17:35;;;;;;;12.83;3.93;;;;;;;7.22;100.00;153215.66;5036265;28;20450;-78
2024/01/25 07:20:01;;;;;;;9.27;3.27;;;;;;;7.22;100.00;153214.38;5034640;28;20474;-77
2024/01/25 07:22:28;;;;;;;10.50;3.20;;;;;;;7.20;100.00;153209.22;5032727;28;21031;-77
2024/01/25 07:24:54;;;;;;;10.03;4.07;;;;;;;7.20;100.00;153210.47;5035968;28;20450;-78
2024/01/25 07:27:21;;;;;;;6.83;3.30;;;;;;;7.19;100.00;153206.63;5035047;28;20460;-79
2024/01/25 07:29:49;;;;;;;10.93;3.83;;;;;;;7.26;100.00;153224.66;5028937;28;20498;-78
2024/01/25 07:32:16;;;;;;;13.00;4.43;;;;;;;7.26;100.00;153225.97;5035834;28;20539;-78
2024/01/25 07:34:43;;;;;;;13.90;4.40;;;;;;;7.24;100.00;153220.81;5035014;28;20469;-79
2024/01/25 07:37:11;;;;;;;10.13;3.30;;;;;;;7.46;100.00;153275.06;5032787;28;20470;-79
2024/01/25 07:39:37;;;;;;;12.90;3.87;;;;;;;7.70;100.00;153337.06;5033368;28;20534;-79
2024/01/25 07:42:04;;;;;;;9.37;3.10;;;;;;;8.04;100.00;153424.91;5034250;28;20451;-78
2024/01/25 07:44:31;;;;;;;12.60;4.23;;;;;;;8.31;100.00;153494.72;5035122;28;20468;-79
2024/01/25 07:46:59;;;;;;;5.73;3.20;;;;;;;8.62;100.00;153572.28;5034124;28;20458;-78
2024/01/25 07:49:25;;;;;;;9.10;3.30;;;;;;;9.01;100.00;153673.13;5033728;28;20554;-78
2024/01/25 07:51:52;;;;;;;7.30;3.07;;;;;;;9.50;100.00;153798.59;5034969;28;20448;-79
2024/01/25 07:54:18;;;;;;;5.33;2.73;;;;;;;9.80;100.00;153876.22;5034205;28;20993;-79
2024/01/25 07:56:45;;;;;;;7.53;3.27;;;;;;;9.82;99.67;153882.69;5033320;28;20483;-79
2024/01/25 07:59:11;;;;;;;4.53;3.00;;;;;;;9.59;99.12;153821.88;5034475;28;20459;-79
2024/01/25 08:01:38;;;;;;;12.00;4.10;;;;;;;9.24;99.97;153732.59;5034763;28;20701;-79
2024/01/25 08:04:07;;;;;;;10.30;3.50;;;;;;;8.91;100.00;153648.56;5034147;28;20458;-79
2024/01/25 08:06:33;;;;;;;8.57;3.17;;;;;;;8.71;100.00;153596.81;5034756;28;20443;-79
2024/01/25 08:09:00;;;;;;;9.13;3.57;;;;;;;8.55;100.00;153555.50;5035633;28;20567;-79
2024/01/25 08:11:26;;;;;;;8.27;3.37;;;;;;;8.42;100.00;153523.16;5033744;28;20912;-79
2024/01/25 08:13:53;;;;;;;9.60;3.60;;;;;;;8.33;100.00;153499.91;5033109;28;20463;-79
2024/01/25 08:16:20;;;;;;;8.00;3.20;;;;;;;8.27;100.00;153484.41;5032880;28;20527;-79
2024/01/25 08:18:47;;;;;;;15.83;3.33;;;;;;;8.26;100.00;153480.50;5017310;28;20451;-79
2024/01/25 08:21:15;;;;;;;5.43;3.17;;;;;;;8.22;100.00;153471.44;5049009;28;20474;-79
2024/01/25 08:23:41;;;;;;;11.70;4.00;;;;;;;8.21;100.00;153468.81;5035601;28;20460;-79
2024/01/25 08:26:09;;;;;;;7.93;3.47;;;;;;;8.21;100.00;153467.50;5034411;28;20439;-79
2024/01/25 08:28:36;;;;;;;6.40;3.10;;;;;;;8.24;100.00;153475.28;5035146;28;20451;-78
2024/01/25 08:31:03;;;;;;;9.13;3.10;;;;;;;8.25;100.00;153479.19;5015361;28;20978;-79
2024/01/25 08:33:29;;;;;;;11.53;3.50;;;;;;;8.23;100.00;153474.03;5034754;28;20493;-79
2024/01/25 08:35:56;;;;;;;9.90;3.57;;;;;;;8.25;100.00;153479.19;5034660;28;20589;-79
2024/01/25 08:38:23;;;;;;;8.67;4.37;;;;;;;8.28;100.00;153487.00;5034568;28;20467;-80
2024/01/25 08:40:50;;;;;;;9.27;4.20;;;;;;;8.32;100.00;153496.00;5033572;28;21016;-79
2024/01/25 08:43:17;;;;;;;7.40;3.93;;;;;;;8.34;100.00;153501.22;5035503;28;20451;-79
2024/01/25 08:45:44;;;;;;;14.23;4.80;;;;;;;8.38;100.00;153511.53;5032319;28;20551;-81
2024/01/25 08:48:10;;;;;;;10.00;4.80;;;;;;;8.41;100.00;153520.59;5035164;28;21084;-80
2024/01/25 08:50:37;;;;;;;5.47;3.37;;;;;;;8.43;100.00;153524.47;5035361;28;20458;-80
2024/01/25 08:53:04;;;;;;;8.63;4.17;;;;;;;8.45;100.00;153529.63;5034881;28;20475;-80
2024/01/25 08:55:32;;;;;;;9.17;3.47;;;;;;;8.44;100.00;153528.34;5035063;28;20520;-81
2024/01/25 08:57:59;;;;;;;6.27;3.23;;;;;;;8.51;100.00;153545.13;5039025;28;20462;-80
2024/01/25 09:00:25;;;;;;;6.10;3.47;;;;;;;8.51;100.00;153546.44;5037987;28;20521;-81
2024/01/25 09:02:52;;;;;;;10.03;4.17;;;;;;;8.52;100.00;153547.75;5036814;28;20463;-80
2024/01/25 09:05:18;;;;;;;11.90;3.67;;;;;;;8.52;100.00;153547.75;5039223;28;20452;-80
2024/01/25 09:07:45;;;;;;;7.10;2.83;;;;;;;8.52;100.00;153549.00;5024947;28;20458;-80
2024/01/25 09:10:12;;;;;;;7.03;2.60;;;;;;;8.58;100.00;153563.22;5037154;28;20524;-78
2024/01/25 09:12:40;;;;;;;10.00;3.10;;;;;;;8.66;100.00;153583.91;5038662;28;20505;-78
2024/01/25 09:15:08;;;;;;;6.37;2.70;;;;;;;8.67;100.00;153586.50;5037047;28;20459;-78
2024/01/25 09:17:34;;;;;;;5.30;3.23;;;;;;;8.69;100.00;153590.38;5038009;28;20458;-78
2024/01/25 09:20:02;;;;;;;9.53;3.30;;;;;;;8.69;100.00;153590.38;5038204;28;20527;-78
2024/01/25 09:22:29;;;;;;;5.47;3.10;;;;;;;8.73;100.00;153600.72;5039196;28;20486;-78
2024/01/25 09:24:56;;;;;;;8.63;2.93;;;;;;;8.72;100.00;153598.13;5037467;28;20886;-78
2024/01/25 09:27:22;;;;;;;6.63;2.50;;;;;;;8.75;100.00;153605.91;5038977;28;20478;-78
2024/01/25 09:29:50;;;;;;;3.83;2.23;;;;;;;8.78;100.00;153613.66;5036743;28;20478;-79
2024/01/25 09:32:17;;;;;;;9.33;3.00;;;;;;;8.80;100.00;153618.81;5038634;28;20451;-80
2024/01/25 09:34:43;;;;;;;6.00;2.70;;;;;;;8.81;100.00;153621.41;5036668;28;20470;-80
2024/01/25 09:37:09;;;;;;;5.60;2.40;;;;;;;8.81;100.00;153622.72;5037594;28;20482;-79
2024/01/25 09:39:36;;;;;;;5.83;2.50;;;;;;;8.81;100.00;153621.41;5038128;28;20463;-79
2024/01/25 09:42:03;;;;;;;6.20;2.70;;;;;;;8.82;100.00;153623.97;5034921;28;20501;-79
2024/01/25 09:44:30;;;;;;;7.07;2.50;;;;;;;8.81;100.00;153621.41;5034887;28;20549;-79
2024/01/25 09:46:58;;;;;;;7.27;2.53;;;;;;;8.80;100.00;153618.81;5037215;28;20939;-79
2024/01/25 09:49:25;;;;;;;9.50;3.03;;;;;;;8.78;100.00;153613.66;5037603;28;20470;-79
2024/01/25 09:51:51;;;;;;;5.77;2.53;;;;;;;8.77;100.00;153612.34;5035606;28;21015;-79
2024/01/25 09:54:18;;;;;;;10.00;2.73;;;;;;;8.74;99.99;153604.59;5037845;28;20886;-78
2024/01/25 09:56:45;;;;;;;7.50;2.80;;;;;;;8.78;99.54;153614.97;5037894;28;20474;-78
2024/01/25 09:59:12;;;;;;;5.77;2.10;;;;;;;8.84;99.58;153630.44;5035252;28;20459;-78
2024/01/25 10:01:38;;;;;;;5.30;2.90;;;;;;;8.84;99.60;153629.19;5037017;28;20459;-78
2024/01/25 10:04:08;;;;;;;6.23;3.00;;;;;;;8.87;100.00;153636.94;5035705;28;20986;-78
2024/01/25 10:06:35;;;;;;;10.13;3.10;;;;;;;8.87;100.00;153636.94;5036164;28;20439;-78
2024/01/25 10:09:01;;;;;;;5.13;2.30;;;;;;;8.86;100.00;153634.34;5037211;28;20527;-78
2024/01/25 10:11:33;;;;;;;9.60;3.80;;;;;;;8.87;100.00;153636.94;5034630;28;21024;-78
2024/01/25 10:14:01;;;;;;;3.93;2.07;;;;;;;8.90;100.00;153644.66;5035446;28;20456;-78
2024/01/25 10:16:28;;;;;;;8.30;2.47;;;;;;;8.95;100.00;153657.59;5035970;28;20528;-78
2024/01/25 10:18:54;;;;;;;6.93;2.87;;;;;;;8.93;100.00;153652.44;5034697;28;20460;-78
2024/01/25 10:21:22;;;;;;;8.20;3.43;;;;;;;8.96;100.00;153661.50;5035754;28;20452;-78
2024/01/25 10:23:51;;;;;;;7.57;3.30;;;;;;;8.99;100.00;153667.97;5037002;28;20526;-78
2024/01/25 10:26:17;;;;;;;13.13;2.63;;;;;;;9.02;100.00;153675.72;5019906;28;20462;-78
2024/01/25 10:28:50;;;;;;;5.90;1.93;;;;;;;9.05;100.00;153683.50;5034092;28;20877;-78
2024/01/25 10:31:17;;;;;;;7.23;2.40;;;;;;;9.03;100.00;153678.28;5037384;28;20454;-78
2024/01/25 10:33:44;;;;;;;7.10;2.60;;;;;;;9.06;99.98;153686.06;5036664;28;20497;-78
2024/01/25 10:36:11;;;;;;;4.33;2.50;;;;;;;9.10;100.00;153696.41;5036712;28;20467;-78
2024/01/25 10:38:39;;;;;;;4.70;2.33;;;;;;;9.09;100.00;153693.81;5036425;28;20482;-78
2024/01/25 10:41:06;;;;;;;9.10;2.73;;;;;;;9.14;100.00;153708.03;5018209;28;20541;-80
2024/01/25 10:43:33;;;;;;;8.10;2.23;;;;;;;9.15;100.00;153710.66;5035865;28;20460;-78
2024/01/25 10:46:00;;;;;;;5.03;2.50;;;;;;;9.21;99.97;153724.88;5036702;28;20451;-78
2024/01/25 10:48:26;;;;;;;9.20;2.17;;;;;;;9.28;98.75;153742.97;5036626;28;20801;-78
2024/01/25 10:50:53;;;;;;;6.17;2.60;;;;;;;9.36;95.86;153763.66;5035734;28;20489;-78
2024/01/25 10:53:20;;;;;;;10.57;3.10;;;;;;;9.47;96.33;153792.13;5036304;28;20451;-78
2024/01/25 10:55:48;;;;;;;4.97;2.43;;;;;;;9.55;93.66;153812.84;5033772;28;20460;-78
2024/01/25 10:58:16;;;;;;;7.27;2.23;;;;;;;9.62;93.20;153830.94;5035008;28;20958;-78
2024/01/25 11:00:51;;;;;;;5.87;2.43;;;;;;;9.65;93.77;153838.72;5035333;28;20451;-78
2024/01/25 11:03:19;;;;;;;11.30;3.07;;;;;;;9.73;94.40;153858.09;5035135;28;20456;-78
2024/01/25 11:05:45;;;;;;;7.83;2.40;;;;;;;9.78;94.18;153871.03;5034623;28;20975;-78
2024/01/25 11:08:19;;;;;;;4.20;2.30;;;;;;;9.81;95.03;153878.81;5034806;28;20861;-78
2024/01/25 11:10:51;;;;;;;9.23;3.30;;;;;;;9.85;93.85;153887.88;5035171;28;20487;-80
2024/01/25 11:13:24;;;;;;;6.33;2.20;;;;;;;9.88;93.09;153896.91;5034424;28;20573;-80
2024/01/25 11:15:51;;;;;;;8.47;2.37;;;;;;;9.93;92.96;153909.84;5035846;28;20466;-81
2024/01/25 11:18:17;;;;;;;6.83;2.53;;;;;;;9.95;93.13;153915.06;5033886;28;20500;-79
2024/01/25 11:20:47;;;;;;;4.10;2.17;;;;;;;9.95;94.37;153913.75;5034608;28;20459;-78
2024/01/25 11:23:17;;;;;;;8.57;2.00;;;;;;;9.96;93.23;153916.31;5036306;28;20452;-79